createdAt,value
2023-04-27T00:03:10.461Z,4.90
2023-04-27T00:08:13.097Z,4.90
2023-04-27T00:13:16.027Z,4.80
2023-04-27T00:18:18.737Z,4.90
2023-04-27T00:23:21.461Z,5.10
2023-04-27T00:28:23.933Z,5.20
2023-04-27T00:33:26.456Z,5.30
2023-04-27T00:38:30.040Z,5.30
2023-04-27T00:43:45.163Z,5.20
2023-04-27T00:48:48.434Z,5.10
2023-04-27T00:53:52.617Z,5.20
2023-04-27T00:58:55.118Z,5.20
2023-04-27T01:03:57.836Z,5.20
2023-04-27T01:09:00.544Z,5.30
2023-04-27T01:14:06.248Z,5.40
2023-04-27T01:19:09.380Z,5.40
2023-04-27T01:24:11.909Z,5.50
2023-04-27T01:29:14.533Z,5.50
2023-04-27T01:34:17.201Z,5.60
2023-04-27T01:39:23.271Z,5.60
2023-04-27T01:44:25.833Z,5.70
2023-04-27T01:49:30.365Z,5.90
2023-04-27T01:54:32.896Z,5.90
2023-04-27T01:59:35.736Z,6.00
2023-04-27T02:04:39.651Z,6.10
2023-04-27T02:09:42.250Z,5.90
2023-04-27T02:14:47.888Z,5.90
2023-04-27T02:19:50.417Z,5.90
2023-04-27T02:24:52.925Z,5.70
2023-04-27T02:29:56.529Z,5.70
2023-04-27T02:35:00.099Z,5.80
2023-04-27T02:40:05.690Z,5.90
2023-04-27T02:45:08.987Z,6.00
2023-04-27T02:50:14.385Z,6.00
2023-04-27T02:55:17.322Z,6.10
2023-04-27T03:00:20.192Z,6.10
2023-04-27T03:05:25.991Z,6.10
2023-04-27T03:10:28.573Z,6.10
2023-04-27T03:15:31.309Z,6.10
2023-04-27T03:20:33.818Z,5.90
2023-04-27T03:25:36.386Z,5.90
2023-04-27T03:30:41.357Z,6.00
2023-04-27T03:35:44.019Z,5.90
2023-04-27T03:40:50.140Z,5.90
2023-04-27T03:45:53.443Z,6.10
2023-04-27T03:50:56.079Z,6.10
2023-04-27T03:55:58.605Z,6.10
2023-04-27T04:01:02.565Z,6.10
2023-04-27T04:06:05.287Z,6.00
2023-04-27T04:11:07.832Z,6.10
2023-04-27T04:16:11.583Z,6.10
2023-04-27T04:21:15.200Z,6.20
2023-04-27T04:26:18.481Z,6.10
2023-04-27T04:31:21.807Z,6.30
2023-04-27T04:36:25.585Z,6.30
2023-04-27T04:41:30.334Z,6.40
2023-04-27T04:46:35.006Z,6.40
2023-04-27T04:51:38.007Z,6.40
2023-04-27T05:34:39.795Z,7.20
2023-04-27T05:47:05.402Z,7.70
2023-04-27T06:03:47.316Z,7.90
2023-04-27T06:08:50.064Z,7.90
2023-04-27T06:13:52.477Z,7.80
2023-04-27T06:18:55.296Z,8.00
2023-04-27T06:23:57.937Z,8.20
2023-04-27T06:29:00.720Z,8.40
2023-04-27T06:34:04.555Z,8.50
2023-04-27T06:39:06.976Z,8.80
2023-04-27T06:44:09.422Z,8.90
2023-04-27T06:49:12.016Z,9.30
2023-04-27T06:54:15.050Z,9.40
2023-04-27T06:59:17.460Z,9.50
2023-04-27T07:04:20.005Z,9.30
2023-04-27T07:09:27.531Z,9.30
2023-04-27T07:14:30.599Z,9.40
2023-04-27T07:19:33.036Z,9.20
2023-04-27T07:24:35.499Z,9.20
2023-04-27T07:29:38.116Z,9.00
2023-04-27T07:34:52.787Z,8.90
2023-04-27T07:39:56.354Z,8.80
2023-04-27T07:44:58.858Z,8.70
2023-04-27T07:50:01.239Z,8.90
2023-04-27T07:55:05.102Z,9.00
2023-04-27T08:00:13.610Z,9.00
2023-04-27T08:05:16.297Z,9.00
2023-04-27T08:10:19.457Z,9.30
2023-04-27T08:15:22.143Z,9.50
2023-04-27T08:20:24.765Z,9.50
2023-04-27T08:25:27.457Z,9.60
2023-04-27T08:30:30.121Z,9.70
2023-04-27T08:35:32.767Z,9.50
2023-04-27T08:40:35.559Z,9.70
2023-04-27T08:45:38.338Z,9.80
2023-04-27T08:50:44.208Z,10.10
2023-04-27T08:55:47.053Z,10.20
2023-04-27T09:00:50.802Z,10.50
2023-04-27T09:06:04.682Z,11.00
2023-04-27T09:11:07.853Z,10.90
2023-04-27T09:16:10.477Z,10.90
2023-04-27T09:21:30.076Z,10.70
2023-04-27T09:26:32.767Z,10.50
2023-04-27T09:31:36.003Z,10.50
2023-04-27T09:36:39.976Z,10.40
2023-04-27T09:41:42.628Z,10.70
2023-04-27T09:46:46.859Z,10.60
2023-04-27T09:51:49.379Z,10.60
2023-04-27T09:57:10.306Z,10.40
2023-04-27T10:02:24.705Z,10.60
2023-04-27T10:07:28.456Z,10.80
2023-04-27T10:12:37.437Z,11.10
2023-04-27T10:17:48.696Z,11.20
2023-04-27T10:22:51.220Z,11.20
2023-04-27T10:27:55.763Z,11.10
2023-04-27T10:33:02.854Z,10.70
2023-04-27T10:38:17.333Z,10.60
2023-04-27T10:43:26.385Z,10.50
2023-04-27T10:48:30.530Z,10.70
2023-04-27T10:53:36.073Z,10.80
2023-04-27T11:03:59.135Z,11.30
2023-04-27T11:09:02.234Z,11.30
2023-04-27T11:14:04.838Z,11.10
2023-04-27T11:19:07.548Z,11.40
2023-04-27T11:24:10.718Z,11.60
2023-04-27T11:29:15.667Z,11.40
2023-04-27T11:34:22.608Z,11.20
2023-04-27T11:39:28.109Z,11.60
2023-04-27T11:44:30.696Z,11.90
2023-04-27T11:49:33.724Z,11.80
2023-04-27T11:54:37.833Z,11.80
2023-04-27T11:59:40.681Z,12.30
2023-04-27T12:04:51.824Z,12.90
2023-04-27T12:09:54.866Z,13.20
2023-04-27T12:15:06.276Z,12.60
2023-04-27T12:20:09.986Z,12.50
2023-04-27T12:25:12.412Z,12.20
2023-04-27T12:30:15.259Z,12.50
2023-04-27T12:35:18.130Z,13.10
2023-04-27T12:40:20.994Z,13.30
2023-04-27T12:45:23.404Z,14.40
2023-04-27T12:50:26.066Z,15.30
2023-04-27T12:55:32.880Z,15.10
2023-04-27T13:00:36.219Z,14.30
2023-04-27T13:05:38.694Z,14.60
2023-04-27T13:10:42.219Z,13.80
2023-04-27T13:15:47.593Z,12.70
2023-04-27T13:21:08.610Z,12.30
2023-04-27T13:26:13.711Z,12.30
2023-04-27T13:31:16.295Z,12.30
2023-04-27T13:36:18.735Z,13.00
2023-04-27T13:41:21.338Z,13.70
2023-04-27T13:46:23.782Z,13.70
2023-04-27T13:51:28.085Z,13.30
2023-04-27T13:56:30.973Z,13.10
2023-04-27T14:01:33.812Z,12.80
2023-04-27T14:06:36.637Z,12.60
2023-04-27T14:11:52.366Z,12.20
2023-04-27T14:16:57.031Z,11.80
2023-04-27T14:22:00.589Z,11.70
2023-04-27T14:27:03.451Z,12.20
2023-04-27T14:32:06.434Z,12.70
2023-04-27T14:37:09.006Z,12.40
2023-04-27T14:42:11.586Z,12.10
2023-04-27T14:47:14.165Z,12.00
2023-04-27T14:52:16.727Z,12.20
2023-04-27T14:57:19.224Z,13.50
2023-04-27T15:02:22.158Z,14.10
2023-04-27T15:07:24.892Z,12.90
2023-04-27T15:12:27.515Z,12.60
2023-04-27T15:17:30.183Z,12.30
2023-04-27T15:22:32.873Z,11.90
2023-04-27T15:27:35.867Z,13.50
2023-04-27T15:32:38.427Z,14.20
2023-04-27T15:37:41.082Z,13.90
2023-04-27T15:42:43.613Z,13.30
2023-04-27T15:47:46.485Z,12.90
2023-04-27T15:52:49.145Z,13.70
2023-04-27T15:57:51.599Z,15.70
2023-04-27T16:02:55.314Z,14.60
2023-04-27T16:07:57.907Z,14.40
2023-04-27T16:13:00.473Z,14.70
2023-04-27T16:18:03.249Z,14.60
2023-04-27T16:23:05.991Z,13.80
2023-04-27T16:28:09.068Z,14.50
2023-04-27T16:33:12.155Z,13.50
2023-04-27T16:38:14.823Z,13.00
2023-04-27T16:43:17.754Z,12.90
2023-04-27T16:48:20.271Z,13.10
2023-04-27T16:53:22.786Z,13.90
2023-04-27T16:58:25.414Z,14.00
2023-04-27T17:03:40.008Z,13.10
2023-04-27T17:08:42.849Z,12.30
2023-04-27T17:13:46.803Z,11.80
2023-04-27T17:18:49.675Z,11.50
2023-04-27T17:23:53.279Z,11.30
2023-04-27T17:29:00.021Z,11.30
2023-04-27T17:34:03.031Z,11.20
2023-04-27T17:39:06.021Z,11.10
2023-04-27T17:44:08.607Z,10.90
2023-04-27T17:49:11.108Z,10.80
2023-04-27T17:54:13.746Z,10.80
2023-04-27T17:59:16.335Z,10.70
2023-04-27T18:04:18.953Z,10.40
2023-04-27T18:21:13.572Z,10.20
2023-04-27T18:30:32.485Z,10.10
2023-04-27T18:33:19.197Z,10.00
2023-04-27T18:45:00.849Z,9.50
2023-04-27T19:23:27.310Z,7.50
2023-04-27T20:35:35.089Z,5.40
2023-04-27T20:41:11.648Z,5.50
2023-04-27T20:53:12.984Z,5.10
2023-04-27T20:58:33.168Z,5.20
2023-04-27T21:21:14.135Z,4.20
2023-04-27T21:26:25.180Z,4.20
2023-04-27T21:32:06.841Z,4.00
2023-04-27T21:37:15.639Z,4.30
2023-04-27T21:42:30.817Z,4.50
2023-04-27T21:53:51.008Z,3.90
2023-04-27T21:58:58.005Z,3.70
2023-04-27T22:04:18.811Z,3.90
2023-04-27T22:09:31.659Z,4.10
2023-04-27T22:14:38.799Z,3.70
2023-04-27T22:19:45.977Z,3.50
2023-04-27T22:25:09.256Z,3.80
2023-04-27T22:42:02.061Z,3.50
2023-04-27T22:47:10.952Z,3.60
2023-04-27T22:52:43.527Z,3.50
2023-04-27T22:58:02.127Z,2.90
2023-04-27T23:03:12.828Z,2.70
2023-04-27T23:14:13.633Z,2.80
2023-04-27T23:19:23.604Z,2.80
2023-04-27T23:24:42.853Z,2.70
2023-04-27T23:29:49.922Z,2.70
2023-04-27T23:34:56.717Z,2.60
2023-04-27T23:40:10.309Z,2.60
2023-04-27T23:45:14.715Z,2.50
2023-04-27T23:50:24.786Z,2.70
